createdAt,value
2018-06-18T04:00:55.389Z,17.02
2018-06-18T04:01:54.962Z,16.92
2018-06-18T04:03:48.220Z,16.88
2018-06-18T04:04:48.065Z,16.92
2018-06-18T04:06:40.822Z,17.03
2018-06-18T04:07:40.716Z,16.92
2018-06-18T04:09:33.439Z,16.95
2018-06-18T04:10:33.301Z,17.03
2018-06-18T04:12:25.982Z,16.94
2018-06-18T04:13:25.862Z,16.92
2018-06-18T04:15:18.539Z,16.88
2018-06-18T04:16:18.430Z,17.05
2018-06-18T04:18:11.136Z,17.03
2018-06-18T04:19:11.007Z,17.00
2018-06-18T04:21:03.688Z,17.03
2018-06-18T04:22:03.609Z,17.03
2018-06-18T04:23:56.297Z,17.06
2018-06-18T04:24:56.165Z,17.12
2018-06-18T04:26:48.852Z,17.25
2018-06-18T04:27:48.744Z,17.24
2018-06-18T04:29:41.434Z,17.17
2018-06-18T04:30:41.319Z,17.24
2018-06-18T04:32:34.504Z,17.22
2018-06-18T04:33:34.386Z,17.18
2018-06-18T04:35:27.579Z,17.32
2018-06-18T04:36:27.456Z,17.32
2018-06-18T04:38:20.187Z,17.36
2018-06-18T04:39:20.043Z,17.42
2018-06-18T04:41:12.731Z,17.38
2018-06-18T04:42:12.623Z,17.43
2018-06-18T04:44:05.347Z,17.39
2018-06-18T04:45:05.193Z,17.46
2018-06-18T04:46:57.883Z,17.36
2018-06-18T04:47:57.793Z,17.40
2018-06-18T04:49:50.487Z,17.52
2018-06-18T04:50:50.361Z,17.49
2018-06-18T04:52:43.036Z,17.65
2018-06-18T04:53:42.939Z,17.68
2018-06-18T04:55:35.842Z,17.69
2018-06-18T04:56:35.645Z,17.84
2018-06-18T04:58:28.387Z,17.88
2018-06-18T04:59:28.300Z,17.92
2018-06-18T05:01:21.028Z,17.96
2018-06-18T05:02:20.795Z,18.02
2018-06-18T05:04:13.514Z,18.01
2018-06-18T05:05:13.388Z,18.03
2018-06-18T05:07:06.081Z,18.05
2018-06-18T05:08:05.966Z,18.02
2018-06-18T05:09:58.740Z,17.95
2018-06-18T05:10:58.588Z,17.94
2018-06-18T05:12:51.436Z,18.01
2018-06-18T05:13:51.222Z,18.03
2018-06-18T05:15:43.907Z,17.92
2018-06-18T05:16:43.820Z,17.96
2018-06-18T05:18:36.460Z,17.88
2018-06-18T05:19:36.379Z,17.87
2018-06-18T05:21:29.067Z,17.86
2018-06-18T05:22:28.947Z,17.69
2018-06-18T05:24:21.630Z,17.58
2018-06-18T05:25:21.525Z,17.60
2018-06-18T05:27:14.734Z,17.83
2018-06-18T05:28:14.612Z,17.88
2018-06-18T05:30:07.287Z,17.86
2018-06-18T05:31:07.187Z,17.99
2018-06-18T05:32:59.896Z,18.05
2018-06-18T05:33:59.768Z,18.08
2018-06-18T05:35:52.462Z,18.13
2018-06-18T05:36:52.350Z,17.98
2018-06-18T05:38:45.055Z,17.96
2018-06-18T05:39:44.928Z,17.96
2018-06-18T05:41:37.626Z,18.06
2018-06-18T05:42:37.516Z,18.05
2018-06-18T05:44:30.864Z,18.19
2018-06-18T05:45:30.087Z,18.10
2018-06-18T05:47:23.266Z,18.23
2018-06-18T05:48:23.164Z,18.32
2018-06-18T05:50:15.875Z,18.24
2018-06-18T05:51:15.746Z,18.17
2018-06-18T05:53:08.425Z,18.34
2018-06-18T05:54:08.331Z,18.31
2018-06-18T05:56:01.036Z,18.31
2018-06-18T05:57:00.905Z,18.29
2018-06-18T05:58:53.591Z,18.38
2018-06-18T05:59:53.483Z,18.38
2018-06-18T06:01:46.194Z,18.35
2018-06-18T06:02:46.059Z,18.42
2018-06-18T06:04:38.776Z,18.50
2018-06-18T06:05:38.642Z,18.50
2018-06-18T06:07:31.341Z,18.51
2018-06-18T06:08:31.221Z,18.49
2018-06-18T06:10:23.929Z,18.32
2018-06-18T06:11:23.805Z,18.31
2018-06-18T06:13:16.491Z,18.32
2018-06-18T06:14:16.382Z,18.10
2018-06-18T06:16:09.090Z,18.29
2018-06-18T06:17:08.963Z,18.31
2018-06-18T06:19:01.677Z,18.27
2018-06-18T06:20:01.578Z,18.26
2018-06-18T06:21:55.270Z,18.38
2018-06-18T06:22:55.147Z,18.29
2018-06-18T06:24:48.374Z,18.26
2018-06-18T06:25:48.261Z,18.21
2018-06-18T06:27:40.982Z,18.34
2018-06-18T06:28:40.851Z,18.41
2018-06-18T06:30:34.036Z,18.31
2018-06-18T06:31:33.926Z,18.32
2018-06-18T06:33:26.633Z,18.24
2018-06-18T06:34:26.515Z,18.35
2018-06-18T06:36:19.225Z,18.50
2018-06-18T06:37:19.100Z,18.47
2018-06-18T06:39:11.788Z,18.63
2018-06-18T06:40:11.677Z,18.68
2018-06-18T06:42:04.533Z,18.81
2018-06-18T06:43:04.286Z,18.81
2018-06-18T06:44:56.965Z,18.96
2018-06-18T06:45:56.848Z,19.02
2018-06-18T06:47:49.550Z,19.05
2018-06-18T06:48:49.495Z,19.09
2018-06-18T06:50:42.263Z,19.15
2018-06-18T06:51:42.034Z,19.17
2018-06-18T06:53:34.744Z,19.30
2018-06-18T06:54:34.618Z,19.32
2018-06-18T06:56:27.307Z,19.43
2018-06-18T06:57:27.210Z,19.57
2018-06-18T06:59:19.917Z,19.53
2018-06-18T07:00:19.790Z,19.67
2018-06-18T07:02:12.479Z,19.78
2018-06-18T07:03:12.386Z,19.57
2018-06-18T07:05:05.077Z,19.50
2018-06-18T07:06:04.969Z,19.57
2018-06-18T07:07:57.711Z,19.46
2018-06-18T07:08:57.542Z,19.40
2018-06-18T07:10:50.292Z,19.49
2018-06-18T07:11:50.185Z,19.56
2018-06-18T07:13:42.871Z,19.49
2018-06-18T07:14:42.769Z,19.47
2018-06-18T07:16:35.470Z,19.55
2018-06-18T07:17:35.340Z,19.56
2018-06-18T07:19:28.040Z,19.55
2018-06-18T07:20:27.927Z,19.64
2018-06-18T07:22:20.636Z,19.63
2018-06-18T07:23:20.513Z,19.63
2018-06-18T07:25:13.227Z,19.78
2018-06-18T07:26:13.103Z,19.93
2018-06-18T07:28:05.798Z,20.11
2018-06-18T07:29:05.697Z,20.11
2018-06-18T07:30:58.423Z,20.42
2018-06-18T07:31:58.285Z,20.46
2018-06-18T07:33:50.971Z,20.90
2018-06-18T07:34:50.875Z,20.94
2018-06-18T07:36:43.587Z,21.11
2018-06-18T07:37:43.461Z,20.85
2018-06-18T07:39:36.155Z,20.63
2018-06-18T07:40:36.064Z,20.83
2018-06-18T07:42:28.756Z,20.66
2018-06-18T07:43:28.638Z,20.42
2018-06-18T07:45:21.358Z,20.60
2018-06-18T07:46:21.261Z,20.66
2018-06-18T07:48:13.967Z,20.57
2018-06-18T07:49:13.840Z,20.63
2018-06-18T07:51:06.541Z,20.71
2018-06-18T07:52:06.433Z,20.67
2018-06-18T07:53:59.154Z,20.48
2018-06-18T07:54:59.027Z,20.38
2018-06-18T07:56:51.713Z,20.49
2018-06-18T07:57:51.606Z,20.61
2018-06-18T07:59:44.321Z,20.81
2018-06-18T08:00:44.192Z,20.91
2018-06-18T08:02:36.898Z,21.01
2018-06-18T08:03:36.859Z,20.94
2018-06-18T08:05:29.484Z,20.79
2018-06-18T08:06:29.389Z,20.56
2018-06-18T08:08:22.094Z,20.74
2018-06-18T08:09:21.970Z,20.94
2018-06-18T08:11:14.676Z,21.04
2018-06-18T08:12:14.563Z,21.12
2018-06-18T08:14:07.274Z,20.61
2018-06-18T08:15:07.159Z,20.60
2018-06-18T08:16:59.840Z,20.76
2018-06-18T08:17:59.749Z,21.00
2018-06-18T08:19:52.475Z,21.28
2018-06-18T08:20:52.343Z,21.43
2018-06-18T08:22:45.054Z,21.55
2018-06-18T08:23:44.945Z,21.61
2018-06-18T08:25:37.626Z,21.53
2018-06-18T08:26:37.522Z,21.67
2018-06-18T08:28:30.226Z,21.83
2018-06-18T08:29:30.119Z,21.67
2018-06-18T08:31:22.798Z,21.68
2018-06-18T08:32:22.737Z,21.73
2018-06-18T08:34:15.421Z,21.86
2018-06-18T08:35:15.339Z,22.15
2018-06-18T08:37:07.989Z,22.23
2018-06-18T08:38:07.887Z,22.12
2018-06-18T08:40:00.609Z,22.24
2018-06-18T08:41:00.484Z,22.60
2018-06-18T08:42:53.269Z,22.67
2018-06-18T08:43:53.092Z,22.97
2018-06-18T08:45:45.801Z,22.67
2018-06-18T08:46:45.680Z,22.70
2018-06-18T08:48:38.390Z,23.06
2018-06-18T08:49:38.281Z,23.01
2018-06-18T08:51:31.001Z,22.70
2018-06-18T08:52:30.879Z,22.54
2018-06-18T08:54:23.586Z,23.79
2018-06-18T08:55:23.484Z,24.42
2018-06-18T08:57:16.209Z,24.66
2018-06-18T08:58:16.821Z,24.37
2018-06-18T09:00:08.800Z,23.71
2018-06-18T09:01:08.688Z,23.64
2018-06-18T09:03:01.394Z,23.34
2018-06-18T09:04:01.286Z,23.10
2018-06-18T09:05:53.998Z,23.09
2018-06-18T09:06:53.876Z,22.97
2018-06-18T09:08:46.572Z,23.57
2018-06-18T09:09:46.482Z,23.59
2018-06-18T09:11:39.194Z,23.64
2018-06-18T09:12:39.079Z,23.53
2018-06-18T09:14:31.819Z,24.02
2018-06-18T09:15:31.680Z,24.39
2018-06-18T09:17:24.399Z,24.86
2018-06-18T09:18:24.284Z,25.01
2018-06-18T09:20:17.001Z,25.01
2018-06-18T09:21:16.885Z,24.96
2018-06-18T09:23:09.593Z,24.54
2018-06-18T09:24:09.489Z,24.56
2018-06-18T09:26:02.211Z,24.29
2018-06-18T09:27:02.092Z,23.77
2018-06-18T09:28:54.811Z,23.45
2018-06-18T09:29:54.710Z,23.34
2018-06-18T09:31:47.428Z,23.03
2018-06-18T09:32:47.306Z,23.03
2018-06-18T09:34:39.998Z,22.70
2018-06-18T09:35:39.928Z,22.59
2018-06-18T09:37:32.613Z,22.42
2018-06-18T09:38:32.504Z,22.38
2018-06-18T09:40:25.187Z,22.31
2018-06-18T09:41:25.088Z,22.46
2018-06-18T09:43:17.795Z,23.00
2018-06-18T09:44:17.738Z,23.52
2018-06-18T09:46:10.367Z,23.97
2018-06-18T09:47:10.274Z,23.87
2018-06-18T09:49:02.993Z,23.72
2018-06-18T09:50:02.883Z,23.56
2018-06-18T09:51:55.551Z,22.71
2018-06-18T09:52:55.464Z,22.52
2018-06-18T09:54:48.172Z,22.49
2018-06-18T09:55:48.078Z,22.34
2018-06-18T09:57:40.744Z,22.22
2018-06-18T09:58:40.645Z,22.16
2018-06-18T10:00:33.351Z,22.29
2018-06-18T10:01:33.230Z,22.29
2018-06-18T10:03:25.923Z,22.23
2018-06-18T10:04:25.830Z,22.59
2018-06-18T10:06:18.532Z,23.16
2018-06-18T10:07:18.418Z,23.67
2018-06-18T10:09:11.101Z,24.49
2018-06-18T10:10:11.064Z,24.61
2018-06-18T10:12:03.717Z,24.45
2018-06-18T10:13:03.594Z,24.33
2018-06-18T10:14:56.340Z,23.81
2018-06-18T10:15:56.200Z,23.55
2018-06-18T10:17:48.892Z,23.07
2018-06-18T10:18:48.796Z,22.78
2018-06-18T10:20:41.502Z,22.18
2018-06-18T10:21:41.393Z,21.97
2018-06-18T10:23:34.076Z,22.16
2018-06-18T10:24:33.975Z,22.30
2018-06-18T10:26:26.731Z,22.44
2018-06-18T10:27:26.580Z,22.42
2018-06-18T10:29:19.268Z,22.44
2018-06-18T10:30:19.174Z,22.54
2018-06-18T10:32:11.880Z,22.69
2018-06-18T10:33:11.759Z,22.85
2018-06-18T10:35:04.449Z,22.92
2018-06-18T10:36:04.356Z,23.01
2018-06-18T10:37:57.559Z,22.94
2018-06-18T10:38:57.449Z,23.21
2018-06-18T10:40:50.185Z,23.53
2018-06-18T10:41:50.048Z,23.59
2018-06-18T10:43:43.350Z,23.66
2018-06-18T10:44:43.224Z,23.78
2018-06-18T10:46:35.936Z,24.19
2018-06-18T10:47:35.831Z,24.37
2018-06-18T10:49:28.541Z,24.59
2018-06-18T10:50:28.432Z,24.87
2018-06-18T10:52:21.127Z,25.08
2018-06-18T10:53:21.029Z,24.85
2018-06-18T10:55:13.745Z,24.74
2018-06-18T10:56:13.648Z,24.64
2018-06-18T10:58:06.355Z,24.55
2018-06-18T10:59:06.233Z,24.39
2018-06-18T11:00:59.102Z,23.64
2018-06-18T11:01:58.830Z,23.26
2018-06-18T11:03:51.626Z,22.91
2018-06-18T11:04:51.420Z,22.88
2018-06-18T11:06:44.133Z,22.97
2018-06-18T11:07:44.025Z,23.09
2018-06-18T11:09:36.738Z,23.22
2018-06-18T11:10:36.613Z,23.35
2018-06-18T11:12:29.338Z,23.32
2018-06-18T11:13:29.279Z,23.29
2018-06-18T11:15:21.949Z,23.34
2018-06-18T11:16:21.990Z,23.40
2018-06-18T11:18:14.539Z,23.10
2018-06-18T11:19:14.459Z,23.00
2018-06-18T11:21:07.162Z,23.45
2018-06-18T11:22:07.029Z,23.55
2018-06-18T11:23:59.749Z,23.41
2018-06-18T11:24:59.619Z,23.42
2018-06-18T11:26:52.412Z,23.56
2018-06-18T11:27:52.219Z,23.59
2018-06-18T11:29:44.937Z,23.66
2018-06-18T11:30:44.822Z,23.92
2018-06-18T11:32:37.545Z,24.09
2018-06-18T11:33:37.422Z,24.14
2018-06-18T11:35:30.138Z,24.44
2018-06-18T11:36:30.006Z,24.56
2018-06-18T11:38:22.722Z,24.64
2018-06-18T11:39:22.614Z,24.67
2018-06-18T11:41:15.326Z,24.63
2018-06-18T11:42:15.238Z,24.80
2018-06-18T11:44:07.898Z,25.12
2018-06-18T11:45:07.804Z,25.22
2018-06-18T11:47:00.512Z,25.32
2018-06-18T11:48:00.436Z,24.94
2018-06-18T11:49:53.089Z,24.67
2018-06-18T11:50:52.998Z,24.49
2018-06-18T11:52:45.731Z,24.17
2018-06-18T11:53:45.610Z,23.97
2018-06-18T11:55:38.294Z,23.34
2018-06-18T11:56:38.194Z,23.14
2018-06-18T11:58:30.908Z,23.04
2018-06-18T11:59:30.790Z,23.10
2018-06-18T12:01:23.555Z,23.26
2018-06-18T12:02:23.387Z,23.18
2018-06-18T12:04:16.078Z,23.15
2018-06-18T12:05:15.980Z,23.29
2018-06-18T12:07:08.786Z,23.28
2018-06-18T12:08:08.574Z,23.37
2018-06-18T12:10:01.283Z,23.67
2018-06-18T12:11:01.181Z,24.07
2018-06-18T12:12:53.883Z,24.58
2018-06-18T12:13:53.776Z,24.71
2018-06-18T12:15:46.459Z,24.66
2018-06-18T12:16:46.421Z,24.56
2018-06-18T12:18:39.080Z,24.08
2018-06-18T12:19:38.953Z,24.29
2018-06-18T12:21:31.657Z,24.04
2018-06-18T12:22:31.556Z,24.02
2018-06-18T12:24:24.759Z,23.70
2018-06-18T12:25:24.645Z,23.40
2018-06-18T12:27:17.346Z,23.82
2018-06-18T12:28:17.241Z,24.04
2018-06-18T12:30:10.030Z,24.45
2018-06-18T12:31:09.870Z,24.56
2018-06-18T12:33:02.833Z,24.78
2018-06-18T12:34:02.473Z,24.86
2018-06-18T12:35:56.846Z,24.67
2018-06-18T12:36:55.950Z,24.77
2018-06-18T12:38:48.672Z,24.80
2018-06-18T12:39:48.583Z,24.59
2018-06-18T12:41:41.278Z,24.52
2018-06-18T12:42:41.176Z,24.44
2018-06-18T12:44:33.870Z,24.29
2018-06-18T12:45:33.762Z,24.30
2018-06-18T12:47:26.611Z,23.90
2018-06-18T12:48:26.409Z,23.96
2018-06-18T12:50:19.122Z,24.08
2018-06-18T12:51:19.005Z,24.18
2018-06-18T12:53:11.729Z,24.21
2018-06-18T12:54:11.624Z,24.42
2018-06-18T12:56:04.340Z,24.40
2018-06-18T12:57:04.220Z,24.33
2018-06-18T12:58:56.933Z,23.99
2018-06-18T12:59:56.833Z,24.18
2018-06-18T13:01:49.538Z,23.81
2018-06-18T13:02:49.422Z,23.63
2018-06-18T13:04:42.138Z,23.52
2018-06-18T13:05:42.027Z,23.41
2018-06-18T13:07:34.820Z,23.21
2018-06-18T13:08:34.627Z,23.15
2018-06-18T13:10:27.315Z,23.21
2018-06-18T13:11:27.214Z,23.40
2018-06-18T13:13:20.450Z,23.42
2018-06-18T13:14:20.335Z,23.53
2018-06-18T13:16:13.045Z,24.18
2018-06-18T13:17:12.930Z,24.24
2018-06-18T13:19:05.636Z,24.24
2018-06-18T13:20:05.517Z,24.03
2018-06-18T13:21:58.757Z,23.78
2018-06-18T13:22:58.642Z,23.53
2018-06-18T13:24:51.342Z,23.28
2018-06-18T13:25:51.219Z,23.26
2018-06-18T13:27:43.974Z,23.25
2018-06-18T13:28:43.841Z,23.44
2018-06-18T13:30:36.683Z,23.60
2018-06-18T13:31:36.429Z,23.57
2018-06-18T13:33:29.175Z,23.55
2018-06-18T13:34:29.028Z,23.50
2018-06-18T13:36:21.758Z,23.25
2018-06-18T13:37:21.682Z,23.00
2018-06-18T13:39:14.378Z,22.88
2018-06-18T13:40:14.265Z,22.75
2018-06-18T13:42:07.097Z,22.51
2018-06-18T13:43:06.860Z,22.45
2018-06-18T13:44:59.576Z,22.22
2018-06-18T13:45:59.460Z,22.15
2018-06-18T13:47:52.153Z,22.24
2018-06-18T13:48:52.058Z,22.26
2018-06-18T13:50:44.765Z,22.27
2018-06-18T13:51:44.661Z,22.39
2018-06-18T13:53:37.342Z,22.48
2018-06-18T13:54:37.241Z,22.36
2018-06-18T13:56:29.946Z,22.54
2018-06-18T13:57:29.826Z,22.34
2018-06-18T13:59:22.518Z,22.27
2018-06-18T14:00:22.422Z,22.36
2018-06-18T14:02:15.224Z,22.45
2018-06-18T14:03:15.007Z,22.38
2018-06-18T14:05:07.699Z,22.29
2018-06-18T14:06:07.598Z,22.24
2018-06-18T14:08:00.323Z,22.18
2018-06-18T14:09:00.191Z,22.20
2018-06-18T14:10:52.882Z,22.29
2018-06-18T14:11:52.775Z,22.31
2018-06-18T14:13:45.519Z,22.73
2018-06-18T14:14:45.364Z,22.84
2018-06-18T14:16:38.059Z,23.01
2018-06-18T14:17:37.960Z,22.99
2018-06-18T14:19:30.695Z,22.39
2018-06-18T14:20:30.583Z,22.22
2018-06-18T14:22:23.249Z,22.16
2018-06-18T14:23:23.145Z,22.20
2018-06-18T14:25:15.889Z,22.23
2018-06-18T14:26:15.749Z,22.20
2018-06-18T14:28:09.299Z,22.11
2018-06-18T14:29:09.201Z,22.09
2018-06-18T14:31:01.912Z,22.20
2018-06-18T14:32:01.801Z,22.46
2018-06-18T14:33:54.485Z,22.49
2018-06-18T14:34:54.388Z,22.66
2018-06-18T14:36:47.112Z,22.49
2018-06-18T14:37:46.985Z,22.57
2018-06-18T14:39:39.667Z,22.70
2018-06-18T14:40:39.574Z,22.66
2018-06-18T14:42:32.372Z,22.79
2018-06-18T14:43:32.160Z,22.75
2018-06-18T14:45:24.867Z,22.67
2018-06-18T14:46:24.751Z,22.61
2018-06-18T14:48:17.508Z,22.71
2018-06-18T14:49:17.355Z,22.70
2018-06-18T14:51:10.051Z,22.71
2018-06-18T14:52:09.926Z,22.64
2018-06-18T14:54:02.664Z,22.61
2018-06-18T14:55:02.518Z,22.55
2018-06-18T14:56:55.296Z,22.49
2018-06-18T14:57:55.113Z,22.44
2018-06-18T14:59:47.819Z,22.27
2018-06-18T15:00:47.715Z,22.34
2018-06-18T15:02:40.431Z,22.27
2018-06-18T15:03:40.308Z,22.22
2018-06-18T15:05:32.997Z,22.07
2018-06-18T15:06:32.890Z,21.96
2018-06-18T15:08:25.639Z,21.71
2018-06-18T15:09:25.572Z,21.64
2018-06-18T15:11:18.192Z,21.51
2018-06-18T15:12:18.076Z,21.55
2018-06-18T15:14:10.814Z,21.58
2018-06-18T15:15:10.676Z,21.49
2018-06-18T15:17:03.363Z,21.48
2018-06-18T15:18:03.267Z,21.52
2018-06-18T15:19:55.988Z,21.64
2018-06-18T15:20:55.910Z,21.77
2018-06-18T15:22:48.570Z,22.15
2018-06-18T15:23:48.495Z,22.22
2018-06-18T15:25:41.136Z,22.48
2018-06-18T15:26:41.077Z,22.54
2018-06-18T15:28:33.739Z,22.57
2018-06-18T15:29:33.633Z,22.70
2018-06-18T15:31:26.318Z,22.94
2018-06-18T15:32:26.248Z,23.09
2018-06-18T15:34:18.978Z,23.41
2018-06-18T15:35:18.864Z,23.14
2018-06-18T15:37:11.565Z,23.25
2018-06-18T15:38:11.529Z,23.34
2018-06-18T15:40:04.185Z,23.41
2018-06-18T15:41:04.037Z,23.15
2018-06-18T15:42:56.733Z,22.57
2018-06-18T15:43:56.730Z,22.54
2018-06-18T15:45:49.341Z,22.48
2018-06-18T15:46:49.229Z,22.54
2018-06-18T15:48:41.934Z,22.64
2018-06-18T15:49:41.877Z,22.64
2018-06-18T15:51:34.502Z,22.70
2018-06-18T15:52:34.476Z,22.79
2018-06-18T15:54:27.120Z,22.69
2018-06-18T15:55:26.998Z,22.73
2018-06-18T15:57:19.782Z,22.63
2018-06-18T15:58:19.636Z,22.54
2018-06-18T16:00:12.358Z,22.55
2018-06-18T16:01:12.244Z,22.46
2018-06-18T16:03:04.924Z,22.41
2018-06-18T16:04:04.831Z,22.38
2018-06-18T16:05:57.544Z,22.18
2018-06-18T16:06:57.419Z,22.24
2018-06-18T16:08:50.127Z,22.39
2018-06-18T16:09:50.014Z,22.34
2018-06-18T16:11:42.722Z,22.36
2018-06-18T16:12:42.614Z,22.23
2018-06-18T16:14:35.313Z,22.20
2018-06-18T16:15:35.204Z,22.12
2018-06-18T16:17:27.887Z,21.99
2018-06-18T16:18:27.792Z,21.94
2018-06-18T16:20:20.495Z,21.92
2018-06-18T16:21:20.379Z,21.99
2018-06-18T16:23:13.070Z,21.92
2018-06-18T16:24:12.965Z,21.89
2018-06-18T16:26:05.680Z,21.82
2018-06-18T16:27:05.556Z,21.68
2018-06-18T16:28:58.242Z,21.73
2018-06-18T16:29:58.143Z,21.64
2018-06-18T16:31:50.860Z,21.41
2018-06-18T16:32:50.734Z,21.25
2018-06-18T16:34:43.450Z,21.40
2018-06-18T16:35:43.340Z,21.58
2018-06-18T16:37:36.353Z,21.73
2018-06-18T16:38:35.940Z,21.93
2018-06-18T16:40:28.622Z,22.00
2018-06-18T16:41:28.512Z,22.14
2018-06-18T16:43:21.212Z,22.18
2018-06-18T16:44:21.100Z,22.22
2018-06-18T16:46:13.791Z,22.15
2018-06-18T16:47:13.690Z,22.22
2018-06-18T16:49:06.405Z,22.33
2018-06-18T16:50:06.289Z,22.18
2018-06-18T16:51:58.978Z,22.16
2018-06-18T16:52:58.886Z,22.24
2018-06-18T16:54:51.741Z,22.11
2018-06-18T16:55:51.491Z,21.99
2018-06-18T16:57:44.188Z,21.99
2018-06-18T16:58:44.071Z,21.93
2018-06-18T17:00:36.787Z,22.00
2018-06-18T17:01:36.643Z,21.99
2018-06-18T17:03:29.470Z,22.05
2018-06-18T17:04:29.246Z,22.04
2018-06-18T17:06:21.942Z,21.85
2018-06-18T17:07:21.835Z,21.85
2018-06-18T17:09:14.575Z,21.85
2018-06-18T17:10:14.470Z,21.97
2018-06-18T17:12:07.799Z,22.26
2018-06-18T17:13:07.050Z,22.30
2018-06-18T17:14:59.789Z,22.29
2018-06-18T17:15:59.649Z,22.38
2018-06-18T17:17:52.355Z,22.57
2018-06-18T17:18:52.245Z,22.55
2018-06-18T17:20:44.963Z,22.59
2018-06-18T17:21:44.841Z,22.64
2018-06-18T17:23:37.531Z,22.59
2018-06-18T17:24:37.436Z,22.66
2018-06-18T17:26:30.143Z,22.82
2018-06-18T17:27:30.024Z,22.89
2018-06-18T17:29:22.762Z,23.04
2018-06-18T17:30:22.609Z,22.84
2018-06-18T17:32:15.343Z,22.75
2018-06-18T17:33:15.219Z,22.70
2018-06-18T17:35:07.897Z,22.59
2018-06-18T17:36:07.785Z,22.54
2018-06-18T17:38:00.672Z,22.48
2018-06-18T17:39:00.395Z,22.46
2018-06-18T17:40:53.095Z,22.27
2018-06-18T17:41:52.992Z,22.38
2018-06-18T17:43:45.712Z,22.38
2018-06-18T17:44:45.594Z,22.44
2018-06-18T17:46:38.293Z,22.18
2018-06-18T17:47:38.203Z,22.39
2018-06-18T17:49:30.921Z,22.31
2018-06-18T17:50:30.780Z,22.24
2018-06-18T17:52:23.542Z,22.30
2018-06-18T17:53:23.365Z,22.33
2018-06-18T17:55:16.062Z,22.24
2018-06-18T17:56:15.974Z,22.22
2018-06-18T17:58:08.675Z,22.48
2018-06-18T17:59:08.557Z,22.48
2018-06-18T18:01:01.243Z,22.18
2018-06-18T18:02:01.136Z,22.16
2018-06-18T18:03:53.855Z,22.22
2018-06-18T18:04:53.733Z,22.23
2018-06-18T18:06:46.421Z,22.44
2018-06-18T18:07:46.329Z,22.45
2018-06-18T18:09:39.041Z,22.23
2018-06-18T18:10:38.913Z,22.18
2018-06-18T18:12:31.620Z,22.22
2018-06-18T18:13:31.523Z,22.38
2018-06-18T18:15:24.325Z,22.20
2018-06-18T18:16:24.178Z,22.22
2018-06-18T18:18:16.966Z,22.16
2018-06-18T18:19:16.766Z,22.14
2018-06-18T18:21:09.451Z,22.14
2018-06-18T18:22:09.372Z,22.11
2018-06-18T18:24:02.063Z,21.97
2018-06-18T18:25:01.966Z,21.90
2018-06-18T18:26:54.638Z,22.04
2018-06-18T18:27:54.540Z,21.97
2018-06-18T18:29:47.295Z,22.00
2018-06-18T18:30:47.145Z,22.00
2018-06-18T18:32:39.836Z,21.99
2018-06-18T18:33:39.739Z,22.00
2018-06-18T18:35:32.515Z,21.93
2018-06-18T18:36:32.382Z,21.85
2018-06-18T18:38:25.076Z,21.89
2018-06-18T18:39:25.052Z,21.90
2018-06-18T18:41:17.690Z,21.86
2018-06-18T18:42:17.579Z,21.85
2018-06-18T18:44:10.292Z,21.70
2018-06-18T18:45:10.160Z,21.70
2018-06-18T18:47:02.911Z,21.74
2018-06-18T18:48:02.793Z,21.74
2018-06-18T18:49:55.476Z,21.77
2018-06-18T18:50:55.372Z,21.76
2018-06-18T18:52:48.074Z,21.71
2018-06-18T18:53:47.968Z,21.71
2018-06-18T18:55:40.703Z,21.67
2018-06-18T18:56:40.556Z,21.64
2018-06-18T18:58:33.413Z,21.56
2018-06-18T18:59:33.126Z,21.56
2018-06-18T19:01:25.832Z,21.48
2018-06-18T19:02:25.718Z,21.49
2018-06-18T19:04:18.560Z,21.46
2018-06-18T19:05:18.297Z,21.52
2018-06-18T19:07:11.050Z,21.46
2018-06-18T19:08:10.888Z,21.48
2018-06-18T19:10:03.569Z,21.52
2018-06-18T19:11:03.469Z,21.43
2018-06-18T19:12:56.178Z,21.51
2018-06-18T19:13:56.101Z,21.52
2018-06-18T19:15:48.773Z,21.46
2018-06-18T19:16:48.667Z,21.48
2018-06-18T19:18:41.373Z,21.45
2018-06-18T19:19:41.337Z,21.45
2018-06-18T19:21:33.966Z,21.46
2018-06-18T19:22:33.843Z,21.37
2018-06-18T19:24:26.517Z,21.36
2018-06-18T19:25:26.432Z,21.30
2018-06-18T19:27:19.142Z,21.30
2018-06-18T19:28:19.015Z,21.28
2018-06-18T19:30:11.708Z,21.16
2018-06-18T19:31:11.653Z,21.15
2018-06-18T19:33:04.676Z,21.13
2018-06-18T19:34:04.218Z,21.11
2018-06-18T19:35:56.896Z,21.00
2018-06-18T19:36:56.796Z,20.88
2018-06-18T19:38:49.548Z,20.75
2018-06-18T19:39:49.371Z,20.76
2018-06-18T19:41:42.060Z,20.58
2018-06-18T19:42:41.972Z,20.54
2018-06-18T19:44:34.678Z,20.49
2018-06-18T19:45:34.562Z,20.35
2018-06-18T19:47:27.237Z,20.44
2018-06-18T19:48:27.140Z,20.46
2018-06-18T19:50:19.846Z,20.32
2018-06-18T19:51:19.721Z,20.22
2018-06-18T19:53:12.426Z,20.18
2018-06-18T19:54:12.308Z,19.98
2018-06-18T19:56:05.522Z,20.11
2018-06-18T19:57:05.399Z,19.98
2018-06-18T19:58:58.204Z,19.98
2018-06-18T19:59:58.074Z,19.98
2018-06-18T20:01:50.791Z,19.95
2018-06-18T20:02:50.667Z,19.97
2018-06-18T20:04:43.369Z,19.92
2018-06-18T20:05:43.239Z,19.78
2018-06-18T20:07:36.097Z,19.85
2018-06-18T20:08:35.852Z,19.85
2018-06-18T20:10:28.551Z,19.70
2018-06-18T20:11:28.429Z,19.72
2018-06-18T20:13:21.109Z,19.68
2018-06-18T20:14:21.016Z,19.68
2018-06-18T20:16:13.709Z,19.55
2018-06-18T20:17:13.596Z,19.56
2018-06-18T20:19:06.281Z,19.56
2018-06-18T20:20:06.169Z,19.57
2018-06-18T20:21:58.869Z,19.60
2018-06-18T20:22:58.759Z,19.53
2018-06-18T20:24:51.485Z,19.50
2018-06-18T20:25:51.368Z,19.46
2018-06-18T20:27:44.055Z,19.43
2018-06-18T20:28:43.928Z,19.46
2018-06-18T20:30:36.664Z,19.43
2018-06-18T20:31:36.579Z,19.46
2018-06-18T20:33:29.261Z,19.31
2018-06-18T20:34:29.143Z,19.34
2018-06-18T20:36:21.824Z,19.28
2018-06-18T20:37:21.724Z,19.31
2018-06-18T20:39:14.427Z,19.32
2018-06-18T20:40:14.339Z,19.28
2018-06-18T20:42:07.061Z,19.34
2018-06-18T20:43:06.882Z,19.35
2018-06-18T20:44:59.589Z,19.32
2018-06-18T20:45:59.465Z,19.37
2018-06-18T20:47:52.185Z,19.42
2018-06-18T20:48:52.048Z,19.38
2018-06-18T20:50:44.805Z,19.38
2018-06-18T20:51:44.636Z,19.40
2018-06-18T20:53:37.366Z,19.56
2018-06-18T20:54:37.226Z,19.50
2018-06-18T20:56:29.905Z,19.52
2018-06-18T20:57:29.795Z,19.50
2018-06-18T20:59:22.518Z,19.46
2018-06-18T21:00:22.385Z,19.53
2018-06-18T21:02:15.113Z,19.49
2018-06-18T21:03:14.968Z,19.50
2018-06-18T21:05:07.717Z,19.45
2018-06-18T21:06:07.569Z,19.45
2018-06-18T21:08:00.234Z,19.47
2018-06-18T21:09:00.135Z,19.49
2018-06-18T21:10:52.841Z,19.47
2018-06-18T21:11:52.715Z,19.47
2018-06-18T21:13:45.414Z,19.43
2018-06-18T21:14:45.306Z,19.43
2018-06-18T21:16:38.026Z,19.46
2018-06-18T21:17:37.888Z,19.43
2018-06-18T21:19:30.564Z,19.49
2018-06-18T21:20:30.462Z,19.45
2018-06-18T21:22:23.206Z,19.49
2018-06-18T21:23:23.087Z,19.46
2018-06-18T21:25:15.757Z,19.45
2018-06-18T21:26:15.649Z,19.47
2018-06-18T21:28:08.394Z,19.47
2018-06-18T21:29:08.234Z,19.46
2018-06-18T21:31:00.923Z,19.42
2018-06-18T21:32:00.834Z,19.46
2018-06-18T21:33:53.610Z,19.56
2018-06-18T21:34:53.486Z,19.47
2018-06-18T21:36:46.166Z,19.40
2018-06-18T21:37:46.071Z,19.46
2018-06-18T21:39:38.794Z,19.43
2018-06-18T21:40:38.646Z,19.43
2018-06-18T21:42:31.327Z,19.43
2018-06-18T21:43:31.232Z,19.38
2018-06-18T21:45:23.943Z,19.30
2018-06-18T21:46:23.814Z,19.38
2018-06-18T21:48:16.502Z,19.32
2018-06-18T21:49:16.414Z,19.30
2018-06-18T21:51:09.256Z,19.16
2018-06-18T21:52:09.002Z,19.16
2018-06-18T21:54:01.732Z,19.00
2018-06-18T21:55:01.574Z,19.06
2018-06-18T21:56:54.266Z,18.87
2018-06-18T21:57:54.147Z,18.87
2018-06-18T21:59:46.828Z,18.90
